About Axiom Aviation

This author has not yet filled in any details.
So far Axiom Aviation has created 10 blog entries.

Why we love flying in the winter!

2017-01-16T18:35:58+00:00October 27th, 2016|

Current METAR

KOGD 230753Z AUTO 17004KT 10SM -RA OVC040 05/04 A3009 RMK AO2 RAB36 SLP180 P0001 T00500039